sensor_id;sensor_type;location;lat;lon;timestamp;temperature;humidity
22167;DHT22;11249;52.468;13.776;2023-07-31T00:01:24;15.80;99.90
22167;DHT22;11249;52.468;13.776;2023-07-31T00:03:51;15.80;99.90
22167;DHT22;11249;52.468;13.776;2023-07-31T00:06:18;15.80;99.90
22167;DHT22;11249;52.468;13.776;2023-07-31T00:08:44;15.80;99.90
22167;DHT22;11249;52.468;13.776;2023-07-31T00:11:11;15.80;99.90
22167;DHT22;11249;52.468;13.776;2023-07-31T00:13:38;15.80;99.90
22167;DHT22;11249;52.468;13.776;2023-07-31T00:16:05;15.80;99.90
22167;DHT22;11249;52.468;13.776;2023-07-31T00:18:32;15.80;99.90
22167;DHT22;11249;52.468;13.776;2023-07-31T00:20:59;15.80;99.90
22167;DHT22;11249;52.468;13.776;2023-07-31T00:23:25;15.80;99.90
22167;DHT22;11249;52.468;13.776;2023-07-31T00:25:52;15.80;99.90
22167;DHT22;11249;52.468;13.776;2023-07-31T00:28:19;15.70;99.90
22167;DHT22;11249;52.468;13.776;2023-07-31T00:30:46;15.70;99.90
22167;DHT22;11249;52.468;13.776;2023-07-31T00:33:13;15.70;99.90
22167;DHT22;11249;52.468;13.776;2023-07-31T00:35:39;15.60;99.90
22167;DHT22;11249;52.468;13.776;2023-07-31T00:38:06;15.60;99.90
22167;DHT22;11249;52.468;13.776;2023-07-31T00:40:36;15.60;99.90
22167;DHT22;11249;52.468;13.776;2023-07-31T00:43:04;15.50;99.90
22167;DHT22;11249;52.468;13.776;2023-07-31T00:45:31;15.50;99.90
22167;DHT22;11249;52.468;13.776;2023-07-31T00:47:58;15.50;99.90
22167;DHT22;11249;52.468;13.776;2023-07-31T00:50:25;15.50;99.90
22167;DHT22;11249;52.468;13.776;2023-07-31T00:52:52;15.50;99.90
22167;DHT22;11249;52.468;13.776;2023-07-31T00:55:19;15.50;99.90
22167;DHT22;11249;52.468;13.776;2023-07-31T00:57:46;15.50;99.90
22167;DHT22;11249;52.468;13.776;2023-07-31T01:00:13;15.50;99.90
22167;DHT22;11249;52.468;13.776;2023-07-31T01:02:39;15.50;99.90
22167;DHT22;11249;52.468;13.776;2023-07-31T01:05:06;15.50;99.90
22167;DHT22;11249;52.468;13.776;2023-07-31T01:07:49;15.50;99.90
22167;DHT22;11249;52.468;13.776;2023-07-31T01:10:27;15.50;99.90
22167;DHT22;11249;52.468;13.776;2023-07-31T01:12:56;15.50;99.90
22167;DHT22;11249;52.468;13.776;2023-07-31T01:15:24;15.50;99.90
22167;DHT22;11249;52.468;13.776;2023-07-31T01:17:50;15.60;99.90
22167;DHT22;11249;52.468;13.776;2023-07-31T01:20:21;15.60;99.90
22167;DHT22;11249;52.468;13.776;2023-07-31T01:23:22;15.60;99.90
22167;DHT22;11249;52.468;13.776;2023-07-31T01:26:12;15.60;99.90
22167;DHT22;11249;52.468;13.776;2023-07-31T01:28:56;15.70;99.90
22167;DHT22;11249;52.468;13.776;2023-07-31T01:31:25;15.70;99.90
22167;DHT22;11249;52.468;13.776;2023-07-31T01:33:54;15.70;99.90
22167;DHT22;11249;52.468;13.776;2023-07-31T01:36:21;15.70;99.90
22167;DHT22;11249;52.468;13.776;2023-07-31T01:38:48;15.70;99.90
22167;DHT22;11249;52.468;13.776;2023-07-31T01:41:17;15.70;99.90
22167;DHT22;11249;52.468;13.776;2023-07-31T01:43:47;15.70;99.90
22167;DHT22;11249;52.468;13.776;2023-07-31T01:46:14;15.80;99.90
22167;DHT22;11249;52.468;13.776;2023-07-31T01:48:40;15.80;99.90
22167;DHT22;11249;52.468;13.776;2023-07-31T01:51:07;15.70;99.90
22167;DHT22;11249;52.468;13.776;2023-07-31T01:53:34;15.70;99.90
22167;DHT22;11249;52.468;13.776;2023-07-31T01:56:00;15.70;99.90
22167;DHT22;11249;52.468;13.776;2023-07-31T01:58:27;15.70;99.90
22167;DHT22;11249;52.468;13.776;2023-07-31T02:00:54;15.70;99.90
22167;DHT22;11249;52.468;13.776;2023-07-31T02:03:21;15.70;99.90
22167;DHT22;11249;52.468;13.776;2023-07-31T02:05:49;15.60;99.90
22167;DHT22;11249;52.468;13.776;2023-07-31T02:08:16;15.60;99.90
22167;DHT22;11249;52.468;13.776;2023-07-31T02:10:43;15.60;99.90
22167;DHT22;11249;52.468;13.776;2023-07-31T02:13:09;15.60;99.90
22167;DHT22;11249;52.468;13.776;2023-07-31T02:15:37;15.70;99.90
22167;DHT22;11249;52.468;13.776;2023-07-31T02:18:04;15.60;99.90
22167;DHT22;11249;52.468;13.776;2023-07-31T02:20:33;15.60;99.90
22167;DHT22;11249;52.468;13.776;2023-07-31T02:23:00;15.70;99.90
22167;DHT22;11249;52.468;13.776;2023-07-31T02:25:27;15.60;99.90
22167;DHT22;11249;52.468;13.776;2023-07-31T02:27:54;15.60;99.90
22167;DHT22;11249;52.468;13.776;2023-07-31T02:30:21;15.60;99.90
22167;DHT22;11249;52.468;13.776;2023-07-31T02:32:48;15.60;99.90
22167;DHT22;11249;52.468;13.776;2023-07-31T02:35:14;15.60;99.90
22167;DHT22;11249;52.468;13.776;2023-07-31T02:37:42;15.60;99.90
22167;DHT22;11249;52.468;13.776;2023-07-31T02:40:09;15.60;99.90
22167;DHT22;11249;52.468;13.776;2023-07-31T02:42:36;15.60;99.90
22167;DHT22;11249;52.468;13.776;2023-07-31T02:45:03;15.60;99.90
22167;DHT22;11249;52.468;13.776;2023-07-31T02:47:29;15.60;99.90
22167;DHT22;11249;52.468;13.776;2023-07-31T02:49:56;15.60;99.90
22167;DHT22;11249;52.468;13.776;2023-07-31T02:52:23;15.60;99.90
22167;DHT22;11249;52.468;13.776;2023-07-31T02:54:49;15.60;99.90
22167;DHT22;11249;52.468;13.776;2023-07-31T02:57:16;15.60;99.90
22167;DHT22;11249;52.468;13.776;2023-07-31T02:59:43;15.60;99.90
22167;DHT22;11249;52.468;13.776;2023-07-31T03:02:09;15.60;99.90
22167;DHT22;11249;52.468;13.776;2023-07-31T03:04:37;15.60;99.90
22167;DHT22;11249;52.468;13.776;2023-07-31T03:07:04;15.60;99.90
22167;DHT22;11249;52.468;13.776;2023-07-31T03:09:31;15.60;99.90
22167;DHT22;11249;52.468;13.776;2023-07-31T03:11:57;15.60;99.90
22167;DHT22;11249;52.468;13.776;2023-07-31T03:14:24;15.60;99.90
22167;DHT22;11249;52.468;13.776;2023-07-31T03:16:53;15.60;99.90
22167;DHT22;11249;52.468;13.776;2023-07-31T03:19:20;15.50;99.90
22167;DHT22;11249;52.468;13.776;2023-07-31T03:21:47;15.50;99.90
22167;DHT22;11249;52.468;13.776;2023-07-31T03:24:13;15.50;99.90
22167;DHT22;11249;52.468;13.776;2023-07-31T03:26:40;15.50;99.90
22167;DHT22;11249;52.468;13.776;2023-07-31T03:29:08;15.50;99.90
22167;DHT22;11249;52.468;13.776;2023-07-31T03:31:35;15.50;99.90
22167;DHT22;11249;52.468;13.776;2023-07-31T03:34:02;15.50;99.90
22167;DHT22;11249;52.468;13.776;2023-07-31T03:36:28;15.50;99.90
22167;DHT22;11249;52.468;13.776;2023-07-31T03:38:55;15.50;99.90
22167;DHT22;11249;52.468;13.776;2023-07-31T03:41:22;15.50;99.90
22167;DHT22;11249;52.468;13.776;2023-07-31T03:43:51;15.50;99.90
22167;DHT22;11249;52.468;13.776;2023-07-31T03:46:18;15.50;99.90
22167;DHT22;11249;52.468;13.776;2023-07-31T03:48:45;15.50;99.90
22167;DHT22;11249;52.468;13.776;2023-07-31T03:51:12;15.60;99.90
22167;DHT22;11249;52.468;13.776;2023-07-31T03:53:38;15.60;99.90
22167;DHT22;11249;52.468;13.776;2023-07-31T03:56:05;15.60;99.90
22167;DHT22;11249;52.468;13.776;2023-07-31T03:58:32;15.60;99.90
22167;DHT22;11249;52.468;13.776;2023-07-31T04:00:59;15.60;99.90
22167;DHT22;11249;52.468;13.776;2023-07-31T04:03:25;15.60;99.90
22167;DHT22;11249;52.468;13.776;2023-07-31T04:05:54;15.60;99.90
22167;DHT22;11249;52.468;13.776;2023-07-31T04:08:21;15.60;99.90
22167;DHT22;11249;52.468;13.776;2023-07-31T04:10:48;15.70;99.90
22167;DHT22;11249;52.468;13.776;2023-07-31T04:13:15;15.70;99.90
22167;DHT22;11249;52.468;13.776;2023-07-31T04:15:42;15.70;99.90
22167;DHT22;11249;52.468;13.776;2023-07-31T04:18:08;15.70;99.90
22167;DHT22;11249;52.468;13.776;2023-07-31T04:20:35;15.70;99.90
22167;DHT22;11249;52.468;13.776;2023-07-31T04:23:02;15.70;99.90
22167;DHT22;11249;52.468;13.776;2023-07-31T04:25:29;15.70;99.90
22167;DHT22;11249;52.468;13.776;2023-07-31T04:27:55;15.80;99.90
22167;DHT22;11249;52.468;13.776;2023-07-31T04:30:22;15.80;99.90
22167;DHT22;11249;52.468;13.776;2023-07-31T04:32:49;15.80;99.90
22167;DHT22;11249;52.468;13.776;2023-07-31T04:35:15;15.80;99.90
22167;DHT22;11249;52.468;13.776;2023-07-31T04:37:42;15.90;99.90
22167;DHT22;11249;52.468;13.776;2023-07-31T04:40:09;15.90;99.90
22167;DHT22;11249;52.468;13.776;2023-07-31T04:42:36;16.00;99.90
22167;DHT22;11249;52.468;13.776;2023-07-31T04:45:03;15.90;99.90
22167;DHT22;11249;52.468;13.776;2023-07-31T04:47:30;15.90;99.90
22167;DHT22;11249;52.468;13.776;2023-07-31T04:49:57;16.00;99.90
22167;DHT22;11249;52.468;13.776;2023-07-31T04:52:23;16.00;99.90
22167;DHT22;11249;52.468;13.776;2023-07-31T04:54:50;16.00;99.90
22167;DHT22;11249;52.468;13.776;2023-07-31T04:57:17;16.00;99.90
22167;DHT22;11249;52.468;13.776;2023-07-31T04:59:43;16.00;99.90
22167;DHT22;11249;52.468;13.776;2023-07-31T05:02:12;16.10;99.90
22167;DHT22;11249;52.468;13.776;2023-07-31T05:04:39;16.20;99.90
22167;DHT22;11249;52.468;13.776;2023-07-31T05:07:06;16.20;99.90
22167;DHT22;11249;52.468;13.776;2023-07-31T05:09:33;16.20;99.90
22167;DHT22;11249;52.468;13.776;2023-07-31T05:11:59;16.20;99.90
22167;DHT22;11249;52.468;13.776;2023-07-31T05:14:26;16.20;99.90
22167;DHT22;11249;52.468;13.776;2023-07-31T05:16:53;16.20;99.90
22167;DHT22;11249;52.468;13.776;2023-07-31T05:19:19;16.20;99.90
22167;DHT22;11249;52.468;13.776;2023-07-31T05:21:46;16.20;99.90
22167;DHT22;11249;52.468;13.776;2023-07-31T05:24:13;16.30;99.90
22167;DHT22;11249;52.468;13.776;2023-07-31T05:26:39;16.30;99.90
22167;DHT22;11249;52.468;13.776;2023-07-31T05:29:07;16.30;99.90
22167;DHT22;11249;52.468;13.776;2023-07-31T05:31:33;16.40;99.90
22167;DHT22;11249;52.468;13.776;2023-07-31T05:34:00;16.50;99.90
22167;DHT22;11249;52.468;13.776;2023-07-31T05:36:27;16.50;99.90
22167;DHT22;11249;52.468;13.776;2023-07-31T05:38:53;16.60;99.90
22167;DHT22;11249;52.468;13.776;2023-07-31T05:41:20;16.70;99.90
22167;DHT22;11249;52.468;13.776;2023-07-31T05:43:47;16.70;99.90
22167;DHT22;11249;52.468;13.776;2023-07-31T05:46:13;16.70;99.90
22167;DHT22;11249;52.468;13.776;2023-07-31T05:48:40;16.70;99.90
22167;DHT22;11249;52.468;13.776;2023-07-31T05:51:07;16.70;99.90
22167;DHT22;11249;52.468;13.776;2023-07-31T05:53:34;16.70;99.90
22167;DHT22;11249;52.468;13.776;2023-07-31T05:56:02;16.60;99.90
22167;DHT22;11249;52.468;13.776;2023-07-31T05:58:29;16.60;99.90
22167;DHT22;11249;52.468;13.776;2023-07-31T06:00:56;16.60;99.90
22167;DHT22;11249;52.468;13.776;2023-07-31T06:03:22;16.60;99.90
22167;DHT22;11249;52.468;13.776;2023-07-31T06:05:49;16.60;99.90
22167;DHT22;11249;52.468;13.776;2023-07-31T06:08:16;16.50;99.90
22167;DHT22;11249;52.468;13.776;2023-07-31T06:10:43;16.50;99.90
22167;DHT22;11249;52.468;13.776;2023-07-31T06:13:09;16.60;99.90
22167;DHT22;11249;52.468;13.776;2023-07-31T06:15:36;16.60;99.90
22167;DHT22;11249;52.468;13.776;2023-07-31T06:18:03;16.60;99.90
22167;DHT22;11249;52.468;13.776;2023-07-31T06:20:31;16.60;99.90
22167;DHT22;11249;52.468;13.776;2023-07-31T06:22:58;16.60;99.90
22167;DHT22;11249;52.468;13.776;2023-07-31T06:25:24;16.60;99.90
22167;DHT22;11249;52.468;13.776;2023-07-31T06:27:51;16.60;99.90
22167;DHT22;11249;52.468;13.776;2023-07-31T06:30:18;16.60;99.90
22167;DHT22;11249;52.468;13.776;2023-07-31T06:32:45;16.70;99.90
22167;DHT22;11249;52.468;13.776;2023-07-31T06:35:11;16.70;99.90
22167;DHT22;11249;52.468;13.776;2023-07-31T06:37:38;16.70;99.90
22167;DHT22;11249;52.468;13.776;2023-07-31T06:40:07;16.70;99.90
22167;DHT22;11249;52.468;13.776;2023-07-31T06:42:35;16.60;99.90
22167;DHT22;11249;52.468;13.776;2023-07-31T06:45:03;16.60;99.90
22167;DHT22;11249;52.468;13.776;2023-07-31T06:47:29;16.60;99.90
22167;DHT22;11249;52.468;13.776;2023-07-31T06:49:56;16.60;99.90
22167;DHT22;11249;52.468;13.776;2023-07-31T06:52:23;16.60;99.90
22167;DHT22;11249;52.468;13.776;2023-07-31T06:55:03;16.60;99.90
22167;DHT22;11249;52.468;13.776;2023-07-31T06:57:30;16.60;99.90
22167;DHT22;11249;52.468;13.776;2023-07-31T06:59:57;16.60;99.90
22167;DHT22;11249;52.468;13.776;2023-07-31T07:02:23;16.60;99.90
22167;DHT22;11249;52.468;13.776;2023-07-31T07:04:50;16.70;99.90
22167;DHT22;11249;52.468;13.776;2023-07-31T07:07:17;16.80;99.90
22167;DHT22;11249;52.468;13.776;2023-07-31T07:09:44;16.90;99.90
22167;DHT22;11249;52.468;13.776;2023-07-31T07:12:11;16.90;99.90
22167;DHT22;11249;52.468;13.776;2023-07-31T07:14:37;17.00;99.90
22167;DHT22;11249;52.468;13.776;2023-07-31T07:17:04;17.00;99.90
22167;DHT22;11249;52.468;13.776;2023-07-31T07:19:31;17.00;99.90
22167;DHT22;11249;52.468;13.776;2023-07-31T07:21:58;17.10;99.90
22167;DHT22;11249;52.468;13.776;2023-07-31T07:24:28;17.00;99.90
22167;DHT22;11249;52.468;13.776;2023-07-31T07:26:55;17.00;99.90
22167;DHT22;11249;52.468;13.776;2023-07-31T07:29:21;17.00;99.90
22167;DHT22;11249;52.468;13.776;2023-07-31T07:31:48;17.00;99.90
22167;DHT22;11249;52.468;13.776;2023-07-31T07:34:15;16.90;99.90
22167;DHT22;11249;52.468;13.776;2023-07-31T07:36:41;16.90;99.90
22167;DHT22;11249;52.468;13.776;2023-07-31T07:39:10;16.80;99.90
22167;DHT22;11249;52.468;13.776;2023-07-31T07:41:37;16.80;99.90
22167;DHT22;11249;52.468;13.776;2023-07-31T07:44:04;16.80;99.90
22167;DHT22;11249;52.468;13.776;2023-07-31T07:46:31;16.80;99.90
22167;DHT22;11249;52.468;13.776;2023-07-31T07:48:58;16.90;99.90
22167;DHT22;11249;52.468;13.776;2023-07-31T07:51:24;17.10;99.90
22167;DHT22;11249;52.468;13.776;2023-07-31T07:53:51;17.20;99.90
22167;DHT22;11249;52.468;13.776;2023-07-31T07:56:18;17.30;99.90
22167;DHT22;11249;52.468;13.776;2023-07-31T07:58:44;17.40;99.90
22167;DHT22;11249;52.468;13.776;2023-07-31T08:01:14;17.60;99.90
22167;DHT22;11249;52.468;13.776;2023-07-31T08:03:41;17.60;99.90
22167;DHT22;11249;52.468;13.776;2023-07-31T08:06:08;17.80;99.90
22167;DHT22;11249;52.468;13.776;2023-07-31T08:08:36;17.90;99.90
22167;DHT22;11249;52.468;13.776;2023-07-31T08:11:03;18.00;99.90
22167;DHT22;11249;52.468;13.776;2023-07-31T08:13:30;18.20;99.90
22167;DHT22;11249;52.468;13.776;2023-07-31T08:15:57;18.30;99.90
22167;DHT22;11249;52.468;13.776;2023-07-31T08:18:24;18.40;99.90
22167;DHT22;11249;52.468;13.776;2023-07-31T08:20:50;18.50;99.90
22167;DHT22;11249;52.468;13.776;2023-07-31T08:23:18;18.40;99.90
22167;DHT22;11249;52.468;13.776;2023-07-31T08:25:45;18.40;99.90
22167;DHT22;11249;52.468;13.776;2023-07-31T08:28:12;18.20;99.90
22167;DHT22;11249;52.468;13.776;2023-07-31T08:30:39;18.20;99.90
22167;DHT22;11249;52.468;13.776;2023-07-31T08:33:06;18.10;99.90
22167;DHT22;11249;52.468;13.776;2023-07-31T08:35:33;18.20;99.90
22167;DHT22;11249;52.468;13.776;2023-07-31T08:38:00;18.30;99.90
22167;DHT22;11249;52.468;13.776;2023-07-31T08:40:27;18.30;99.90
22167;DHT22;11249;52.468;13.776;2023-07-31T08:42:55;18.30;99.90
22167;DHT22;11249;52.468;13.776;2023-07-31T08:45:28;18.30;99.90
22167;DHT22;11249;52.468;13.776;2023-07-31T08:47:56;18.20;99.90
22167;DHT22;11249;52.468;13.776;2023-07-31T08:50:24;18.20;99.90
22167;DHT22;11249;52.468;13.776;2023-07-31T08:52:51;18.40;99.90
22167;DHT22;11249;52.468;13.776;2023-07-31T08:55:18;18.50;99.90
22167;DHT22;11249;52.468;13.776;2023-07-31T08:57:51;18.60;99.90
22167;DHT22;11249;52.468;13.776;2023-07-31T09:00:20;18.70;99.90
22167;DHT22;11249;52.468;13.776;2023-07-31T09:03:08;18.70;99.90
22167;DHT22;11249;52.468;13.776;2023-07-31T09:05:36;18.70;99.90
22167;DHT22;11249;52.468;13.776;2023-07-31T09:08:04;18.80;99.90
22167;DHT22;11249;52.468;13.776;2023-07-31T09:10:31;18.90;99.90
22167;DHT22;11249;52.468;13.776;2023-07-31T09:12:58;19.10;99.90
22167;DHT22;11249;52.468;13.776;2023-07-31T09:15:25;19.10;99.90
22167;DHT22;11249;52.468;13.776;2023-07-31T09:18:05;19.20;99.90
22167;DHT22;11249;52.468;13.776;2023-07-31T09:20:32;19.20;99.90
22167;DHT22;11249;52.468;13.776;2023-07-31T09:23:10;19.20;99.90
22167;DHT22;11249;52.468;13.776;2023-07-31T09:25:38;19.10;99.90
22167;DHT22;11249;52.468;13.776;2023-07-31T09:28:07;19.00;99.90
22167;DHT22;11249;52.468;13.776;2023-07-31T09:30:48;19.00;99.90
22167;DHT22;11249;52.468;13.776;2023-07-31T09:33:16;19.10;99.90
22167;DHT22;11249;52.468;13.776;2023-07-31T09:35:43;19.20;99.90
22167;DHT22;11249;52.468;13.776;2023-07-31T09:38:12;19.40;99.90
22167;DHT22;11249;52.468;13.776;2023-07-31T09:40:44;19.40;99.90
22167;DHT22;11249;52.468;13.776;2023-07-31T09:43:14;19.50;99.90
22167;DHT22;11249;52.468;13.776;2023-07-31T09:45:44;19.40;99.90
22167;DHT22;11249;52.468;13.776;2023-07-31T09:48:13;19.40;99.90
22167;DHT22;11249;52.468;13.776;2023-07-31T09:50:44;19.50;99.90
22167;DHT22;11249;52.468;13.776;2023-07-31T09:53:11;19.40;99.90
22167;DHT22;11249;52.468;13.776;2023-07-31T09:55:39;19.30;99.90
22167;DHT22;11249;52.468;13.776;2023-07-31T09:58:07;19.40;99.90
22167;DHT22;11249;52.468;13.776;2023-07-31T10:00:35;19.10;99.90
22167;DHT22;11249;52.468;13.776;2023-07-31T10:03:10;18.80;99.90
22167;DHT22;11249;52.468;13.776;2023-07-31T10:05:44;18.60;99.90
22167;DHT22;11249;52.468;13.776;2023-07-31T10:08:14;18.40;99.90
22167;DHT22;11249;52.468;13.776;2023-07-31T10:10:45;18.50;99.90
22167;DHT22;11249;52.468;13.776;2023-07-31T10:13:13;18.50;99.90
22167;DHT22;11249;52.468;13.776;2023-07-31T10:15:40;18.50;99.90
22167;DHT22;11249;52.468;13.776;2023-07-31T10:18:08;18.60;99.90
22167;DHT22;11249;52.468;13.776;2023-07-31T10:20:35;18.80;99.90
22167;DHT22;11249;52.468;13.776;2023-07-31T10:23:03;18.90;99.90
22167;DHT22;11249;52.468;13.776;2023-07-31T10:25:30;18.70;99.90
22167;DHT22;11249;52.468;13.776;2023-07-31T10:27:58;18.80;99.90
22167;DHT22;11249;52.468;13.776;2023-07-31T10:30:29;18.90;99.90
22167;DHT22;11249;52.468;13.776;2023-07-31T10:32:56;19.10;99.90
22167;DHT22;11249;52.468;13.776;2023-07-31T10:35:24;19.20;99.90
22167;DHT22;11249;52.468;13.776;2023-07-31T10:37:52;19.20;99.90
22167;DHT22;11249;52.468;13.776;2023-07-31T10:40:26;19.30;99.90
22167;DHT22;11249;52.468;13.776;2023-07-31T10:42:55;19.20;99.90
22167;DHT22;11249;52.468;13.776;2023-07-31T10:48:13;19.10;99.90
22167;DHT22;11249;52.468;13.776;2023-07-31T10:50:55;19.10;99.90
22167;DHT22;11249;52.468;13.776;2023-07-31T10:53:29;19.20;99.90
22167;DHT22;11249;52.468;13.776;2023-07-31T10:56:04;19.30;99.90
22167;DHT22;11249;52.468;13.776;2023-07-31T10:58:32;19.30;99.90
22167;DHT22;11249;52.468;13.776;2023-07-31T11:01:01;19.40;99.90
22167;DHT22;11249;52.468;13.776;2023-07-31T11:03:49;19.50;99.90
22167;DHT22;11249;52.468;13.776;2023-07-31T11:06:19;19.70;99.90
22167;DHT22;11249;52.468;13.776;2023-07-31T11:08:47;20.00;99.90
22167;DHT22;11249;52.468;13.776;2023-07-31T11:11:16;20.30;99.90
22167;DHT22;11249;52.468;13.776;2023-07-31T11:16:13;21.30;99.90
22167;DHT22;11249;52.468;13.776;2023-07-31T11:18:42;21.80;99.90
22167;DHT22;11249;52.468;13.776;2023-07-31T11:21:12;21.90;99.90
22167;DHT22;11249;52.468;13.776;2023-07-31T11:23:40;22.00;99.90
22167;DHT22;11249;52.468;13.776;2023-07-31T11:26:07;22.00;99.90
22167;DHT22;11249;52.468;13.776;2023-07-31T11:28:35;22.10;99.90
22167;DHT22;11249;52.468;13.776;2023-07-31T11:31:02;22.20;99.90
22167;DHT22;11249;52.468;13.776;2023-07-31T11:33:30;22.20;99.90
22167;DHT22;11249;52.468;13.776;2023-07-31T11:35:57;22.10;99.90
22167;DHT22;11249;52.468;13.776;2023-07-31T11:38:24;21.70;99.90
22167;DHT22;11249;52.468;13.776;2023-07-31T11:40:56;21.60;99.90
22167;DHT22;11249;52.468;13.776;2023-07-31T11:43:24;21.50;99.90
22167;DHT22;11249;52.468;13.776;2023-07-31T11:45:53;21.40;99.90
22167;DHT22;11249;52.468;13.776;2023-07-31T11:48:28;21.50;99.90
22167;DHT22;11249;52.468;13.776;2023-07-31T11:51:00;21.50;99.90
22167;DHT22;11249;52.468;13.776;2023-07-31T11:56:00;21.60;99.90
22167;DHT22;11249;52.468;13.776;2023-07-31T11:58:28;21.70;99.90
22167;DHT22;11249;52.468;13.776;2023-07-31T12:00:56;21.70;99.90
22167;DHT22;11249;52.468;13.776;2023-07-31T12:03:24;21.70;99.90
22167;DHT22;11249;52.468;13.776;2023-07-31T12:05:53;21.70;99.90
22167;DHT22;11249;52.468;13.776;2023-07-31T12:08:23;21.60;99.90
22167;DHT22;11249;52.468;13.776;2023-07-31T12:10:51;21.50;99.90
22167;DHT22;11249;52.468;13.776;2023-07-31T12:13:23;21.50;99.90
22167;DHT22;11249;52.468;13.776;2023-07-31T12:15:55;21.40;99.90
22167;DHT22;11249;52.468;13.776;2023-07-31T12:18:25;21.20;99.90
22167;DHT22;11249;52.468;13.776;2023-07-31T12:20:58;21.10;99.90
22167;DHT22;11249;52.468;13.776;2023-07-31T12:23:28;21.10;99.90
22167;DHT22;11249;52.468;13.776;2023-07-31T12:26:12;20.90;99.90
22167;DHT22;11249;52.468;13.776;2023-07-31T12:28:44;21.00;99.90
22167;DHT22;11249;52.468;13.776;2023-07-31T12:31:12;21.00;99.90
22167;DHT22;11249;52.468;13.776;2023-07-31T12:33:40;21.00;99.90
22167;DHT22;11249;52.468;13.776;2023-07-31T12:36:10;21.10;99.90
22167;DHT22;11249;52.468;13.776;2023-07-31T12:38:37;21.30;99.90
22167;DHT22;11249;52.468;13.776;2023-07-31T12:41:04;21.50;99.90
22167;DHT22;11249;52.468;13.776;2023-07-31T12:43:34;21.60;99.90
22167;DHT22;11249;52.468;13.776;2023-07-31T12:46:01;21.70;99.90
22167;DHT22;11249;52.468;13.776;2023-07-31T12:48:28;21.70;99.90
22167;DHT22;11249;52.468;13.776;2023-07-31T12:50:55;21.60;99.90
22167;DHT22;11249;52.468;13.776;2023-07-31T12:53:21;21.50;99.90
22167;DHT22;11249;52.468;13.776;2023-07-31T12:55:48;21.50;99.90
22167;DHT22;11249;52.468;13.776;2023-07-31T12:58:15;21.40;99.90
22167;DHT22;11249;52.468;13.776;2023-07-31T13:00:42;21.40;99.90
22167;DHT22;11249;52.468;13.776;2023-07-31T13:03:09;21.30;99.90
22167;DHT22;11249;52.468;13.776;2023-07-31T13:05:36;21.40;99.90
22167;DHT22;11249;52.468;13.776;2023-07-31T13:08:02;21.60;99.90
22167;DHT22;11249;52.468;13.776;2023-07-31T13:10:29;21.60;99.90
22167;DHT22;11249;52.468;13.776;2023-07-31T13:12:57;21.70;99.90
22167;DHT22;11249;52.468;13.776;2023-07-31T13:15:23;21.70;99.90
22167;DHT22;11249;52.468;13.776;2023-07-31T13:17:51;21.90;99.90
22167;DHT22;11249;52.468;13.776;2023-07-31T13:20:18;22.20;99.90
22167;DHT22;11249;52.468;13.776;2023-07-31T13:22:44;22.50;99.90
22167;DHT22;11249;52.468;13.776;2023-07-31T13:25:12;22.60;99.90
22167;DHT22;11249;52.468;13.776;2023-07-31T13:27:39;22.70;99.90
22167;DHT22;11249;52.468;13.776;2023-07-31T13:30:06;22.80;99.90
22167;DHT22;11249;52.468;13.776;2023-07-31T13:32:33;22.60;99.90
22167;DHT22;11249;52.468;13.776;2023-07-31T13:35:00;22.40;99.90
22167;DHT22;11249;52.468;13.776;2023-07-31T13:37:27;22.30;99.90
22167;DHT22;11249;52.468;13.776;2023-07-31T13:39:54;22.20;99.90
22167;DHT22;11249;52.468;13.776;2023-07-31T13:42:20;22.10;99.90
22167;DHT22;11249;52.468;13.776;2023-07-31T13:44:48;22.10;99.90
22167;DHT22;11249;52.468;13.776;2023-07-31T13:47:15;22.20;99.90
22167;DHT22;11249;52.468;13.776;2023-07-31T13:49:41;22.40;99.90
22167;DHT22;11249;52.468;13.776;2023-07-31T13:52:09;22.30;99.90
22167;DHT22;11249;52.468;13.776;2023-07-31T13:54:36;22.50;99.90
22167;DHT22;11249;52.468;13.776;2023-07-31T13:57:03;22.70;99.90
22167;DHT22;11249;52.468;13.776;2023-07-31T13:59:30;22.50;99.90
22167;DHT22;11249;52.468;13.776;2023-07-31T14:01:57;22.40;99.90
22167;DHT22;11249;52.468;13.776;2023-07-31T14:04:23;22.60;99.90
22167;DHT22;11249;52.468;13.776;2023-07-31T14:06:51;22.90;99.90
22167;DHT22;11249;52.468;13.776;2023-07-31T14:09:18;23.50;99.90
22167;DHT22;11249;52.468;13.776;2023-07-31T14:11:45;23.80;99.90
22167;DHT22;11249;52.468;13.776;2023-07-31T14:14:11;23.90;99.90
22167;DHT22;11249;52.468;13.776;2023-07-31T14:16:39;24.00;99.90
22167;DHT22;11249;52.468;13.776;2023-07-31T14:19:06;23.90;99.90
22167;DHT22;11249;52.468;13.776;2023-07-31T14:21:35;23.60;99.90
22167;DHT22;11249;52.468;13.776;2023-07-31T14:24:03;23.50;99.90
22167;DHT22;11249;52.468;13.776;2023-07-31T14:26:30;23.40;99.90
22167;DHT22;11249;52.468;13.776;2023-07-31T14:28:57;23.40;99.90
22167;DHT22;11249;52.468;13.776;2023-07-31T14:31:24;23.20;99.90
22167;DHT22;11249;52.468;13.776;2023-07-31T14:33:51;23.00;99.90
22167;DHT22;11249;52.468;13.776;2023-07-31T14:36:20;22.80;99.90
22167;DHT22;11249;52.468;13.776;2023-07-31T14:38:47;22.90;99.90
22167;DHT22;11249;52.468;13.776;2023-07-31T14:41:14;23.00;99.90
22167;DHT22;11249;52.468;13.776;2023-07-31T14:43:40;23.20;99.90
22167;DHT22;11249;52.468;13.776;2023-07-31T14:46:07;23.10;99.90
22167;DHT22;11249;52.468;13.776;2023-07-31T14:48:34;23.20;99.90
22167;DHT22;11249;52.468;13.776;2023-07-31T14:51:00;23.20;99.90
22167;DHT22;11249;52.468;13.776;2023-07-31T14:53:27;23.10;99.90
22167;DHT22;11249;52.468;13.776;2023-07-31T14:55:54;23.10;99.90
22167;DHT22;11249;52.468;13.776;2023-07-31T14:58:21;22.90;99.90
22167;DHT22;11249;52.468;13.776;2023-07-31T15:00:48;22.80;99.90
22167;DHT22;11249;52.468;13.776;2023-07-31T15:03:14;22.90;99.90
22167;DHT22;11249;52.468;13.776;2023-07-31T15:05:41;22.90;99.90
22167;DHT22;11249;52.468;13.776;2023-07-31T15:08:08;22.90;99.90
22167;DHT22;11249;52.468;13.776;2023-07-31T15:10:34;22.80;99.90
22167;DHT22;11249;52.468;13.776;2023-07-31T15:13:01;22.90;99.90
22167;DHT22;11249;52.468;13.776;2023-07-31T15:15:28;22.90;99.90
22167;DHT22;11249;52.468;13.776;2023-07-31T15:17:55;22.90;99.90
22167;DHT22;11249;52.468;13.776;2023-07-31T15:20:22;22.90;99.90
22167;DHT22;11249;52.468;13.776;2023-07-31T15:22:49;22.90;99.90
22167;DHT22;11249;52.468;13.776;2023-07-31T15:25:16;22.90;99.90
22167;DHT22;11249;52.468;13.776;2023-07-31T15:27:43;22.80;99.90